Time;durP1;ratioP1;P1;durP2;ratioP2;P2;SDS_P1;SDS_P2;PMS_P1;PMS_P2;Temp;Humidity;BMP_temperature;BMP_pressure;BME280_temperature;BME280_humidity;BME280_pressure;Samples;Min_cycle;Max_cycle;Signal;HPM_P1;HPM_P2
2021/10/20 00:00:51;;;;;;;21.55;15.28;;;;;;;12.23;79.29;100807.77;1751559;81;21101;-82
2021/10/20 00:03:21;;;;;;;21.55;16.75;;;;;;;12.25;79.30;100808.69;1751545;81;21078;-82
2021/10/20 00:05:47;;;;;;;21.62;16.27;;;;;;;12.27;79.39;100817.08;1751569;80;21073;-82
2021/10/20 00:08:16;;;;;;;20.52;15.98;;;;;;;12.25;79.36;100811.33;1751088;81;21062;-82
2021/10/20 00:10:50;;;;;;;21.55;16.70;;;;;;;12.24;79.40;100804.73;1751146;80;21536;-82
2021/10/20 00:13:15;;;;;;;19.52;15.32;;;;;;;12.22;79.44;100802.49;1751016;81;21066;-82
2021/10/20 00:15:42;;;;;;;18.60;15.10;;;;;;;12.22;79.52;100798.53;1751652;81;21616;-82
2021/10/20 00:18:09;;;;;;;20.43;16.40;;;;;;;12.24;79.64;100797.69;1751453;81;22291;-82
2021/10/20 00:20:39;;;;;;;21.48;15.70;;;;;;;12.27;79.65;100806.52;1751337;81;21798;-82
2021/10/20 00:23:12;;;;;;;19.25;14.78;;;;;;;12.27;79.71;100795.53;1751459;80;21093;-82
2021/10/20 00:25:34;;;;;;;18.52;14.60;;;;;;;12.28;79.78;100783.25;1750360;81;21045;-82
2021/10/20 00:28:01;;;;;;;21.75;16.00;;;;;;;12.29;79.80;100784.56;1751629;81;21642;-83
2021/10/20 00:30:31;;;;;;;17.60;15.03;;;;;;;12.29;79.84;100779.29;1751699;81;21141;-82
2021/10/20 00:32:57;;;;;;;19.37;15.78;;;;;;;12.29;79.88;100769.17;1750988;81;22551;-82
2021/10/20 00:35:24;;;;;;;20.35;15.93;;;;;;;12.30;79.96;100767.88;1751437;81;20991;-82
2021/10/20 00:37:51;;;;;;;17.10;14.98;;;;;;;12.33;80.01;100760.44;1751679;81;21550;-82
2021/10/20 00:40:17;;;;;;;17.05;14.38;;;;;;;12.33;79.96;100757.39;1751601;80;21256;-82
2021/10/20 00:42:48;;;;;;;20.75;15.60;;;;;;;12.32;79.97;100754.28;1751683;80;21015;-82
2021/10/20 00:45:14;;;;;;;22.27;15.38;;;;;;;12.32;80.04;100736.25;1751247;81;21698;-82
2021/10/20 00:47:41;;;;;;;25.08;16.85;;;;;;;12.32;80.07;100733.17;1751452;80;21066;-82
2021/10/20 00:50:10;;;;;;;23.42;15.53;;;;;;;12.33;80.10;100727.45;1751460;80;21101;-82
2021/10/20 00:52:37;;;;;;;21.42;16.10;;;;;;;12.34;80.16;100727.92;1751421;80;21058;-82
2021/10/20 00:55:05;;;;;;;21.50;16.57;;;;;;;12.34;80.18;100732.77;1751559;81;21085;-83
2021/10/20 00:57:35;;;;;;;19.37;15.00;;;;;;;12.32;80.16;100734.92;1734444;81;21804;-83
2021/10/20 01:00:05;;;;;;;21.87;16.02;;;;;;;12.31;80.23;100730.05;1730216;82;21659;-83
2021/10/20 01:02:32;;;;;;;27.67;16.27;;;;;;;12.32;80.28;100726.56;1730528;82;21008;-83
2021/10/20 01:05:26;;;;;;;18.73;15.90;;;;;;;12.34;80.35;100720.00;1730396;82;21593;-83
2021/10/20 01:07:55;;;;;;;22.80;17.48;;;;;;;12.35;80.42;100712.52;1714993;82;21235;-83
2021/10/20 01:10:22;;;;;;;22.37;17.37;;;;;;;12.36;80.43;100704.64;1715202;83;21859;-83
2021/10/20 01:12:51;;;;;;;19.27;16.55;;;;;;;12.37;80.50;100699.83;1713919;82;21161;-83
2021/10/20 01:15:27;;;;;;;24.18;16.65;;;;;;;12.38;80.54;100689.70;1715351;83;21077;-83
2021/10/20 01:17:57;;;;;;;30.35;16.97;;;;;;;12.38;80.54;100686.19;1715210;82;21102;-82
2021/10/20 01:20:25;;;;;;;26.12;17.15;;;;;;;12.39;80.60;100666.86;1714424;82;21572;-82
2021/10/20 01:22:52;;;;;;;21.90;16.55;;;;;;;12.37;80.60;100661.96;1715389;83;21760;-82
2021/10/20 01:25:19;;;;;;;20.52;16.20;;;;;;;12.36;80.68;100672.96;1715233;83;21023;-82
2021/10/20 01:27:49;;;;;;;20.37;16.90;;;;;;;12.36;80.77;100676.92;1715373;82;21149;-83
2021/10/20 01:30:14;;;;;;;22.05;17.12;;;;;;;12.37;80.87;100673.44;1714765;83;21129;-82
2021/10/20 01:32:43;;;;;;;23.45;17.20;;;;;;;12.39;80.94;100669.50;1724165;82;21067;-82
2021/10/20 01:35:11;;;;;;;23.42;16.75;;;;;;;12.40;80.98;100671.27;1705730;82;21145;-82
2021/10/20 01:37:40;;;;;;;21.45;16.27;;;;;;;12.43;81.01;100656.36;1706023;82;21134;-82
2021/10/20 01:40:12;;;;;;;17.12;14.53;;;;;;;12.45;81.00;100647.16;1707784;82;21075;-82
2021/10/20 01:42:37;;;;;;;18.77;15.75;;;;;;;12.46;81.00;100650.23;1730177;81;21102;-82
2021/10/20 01:45:08;;;;;;;20.37;15.38;;;;;;;12.46;81.07;100647.59;1730516;81;21062;-82
2021/10/20 01:47:35;;;;;;;18.98;15.23;;;;;;;12.48;81.08;100647.63;1730496;82;21931;-82
2021/10/20 01:50:05;;;;;;;18.87;14.50;;;;;;;12.51;81.09;100636.68;1730321;82;21569;-82
2021/10/20 01:52:31;;;;;;;18.40;15.35;;;;;;;12.51;81.10;100626.12;1730440;82;21632;-82
2021/10/20 01:54:58;;;;;;;17.48;14.35;;;;;;;12.53;81.14;100625.70;1730432;82;21044;-82
2021/10/20 01:57:25;;;;;;;18.60;15.45;;;;;;;12.55;81.17;100631.02;1743229;81;21046;-82
2021/10/20 01:59:57;;;;;;;17.32;14.60;;;;;;;12.55;81.18;100611.22;1751004;80;21089;-81
2021/10/20 02:02:23;;;;;;;17.65;15.40;;;;;;;12.57;81.20;100616.96;1750906;81;21599;-81
2021/10/20 02:04:50;;;;;;;14.68;13.13;;;;;;;12.58;81.25;100604.67;1751539;81;21565;-81
2021/10/20 02:07:19;;;;;;;17.17;15.05;;;;;;;12.58;81.20;100602.03;1751511;81;21054;-82
2021/10/20 02:09:46;;;;;;;17.70;13.60;;;;;;;12.58;81.23;100603.35;1751611;81;21048;-82
2021/10/20 02:12:12;;;;;;;17.15;13.20;;;;;;;12.59;81.30;100595.45;1719726;81;21685;-82
2021/10/20 02:14:43;;;;;;;16.93;14.60;;;;;;;12.60;81.30;100587.09;1751332;81;21031;-82
2021/10/20 02:17:08;;;;;;;18.37;14.38;;;;;;;12.60;81.30;100585.77;1750859;80;21081;-81
2021/10/20 02:19:35;;;;;;;15.45;13.78;;;;;;;12.60;81.34;100590.61;1751142;81;21370;-81
2021/10/20 02:22:03;;;;;;;15.98;13.83;;;;;;;12.62;81.43;100592.84;1751488;81;21073;-81
2021/10/20 02:24:30;;;;;;;13.08;11.48;;;;;;;12.64;81.44;100590.23;1751563;81;21762;-81
2021/10/20 02:26:57;;;;;;;14.60;12.73;;;;;;;12.68;81.51;100592.03;1751508;81;21069;-81
2021/10/20 02:29:25;;;;;;;16.45;12.70;;;;;;;12.69;81.49;100594.23;1750998;81;21488;-81
2021/10/20 02:31:54;;;;;;;12.60;11.20;;;;;;;12.71;81.46;100584.61;1717548;81;21082;-81
2021/10/20 02:34:21;;;;;;;13.45;11.40;;;;;;;12.73;81.57;100587.72;1751603;81;22642;-81
2021/10/20 02:36:48;;;;;;;13.58;11.75;;;;;;;12.77;81.61;100583.36;1751381;80;22556;-82
2021/10/20 02:39:14;;;;;;;13.13;11.25;;;;;;;12.79;81.59;100586.47;1751304;81;21043;-80
2021/10/20 02:41:41;;;;;;;14.58;10.65;;;;;;;12.80;81.59;100588.25;1751557;80;21054;-80
2021/10/20 02:44:08;;;;;;;13.18;11.83;;;;;;;12.82;81.61;100573.31;1751511;81;21050;-81
2021/10/20 02:46:35;;;;;;;12.28;10.95;;;;;;;12.84;81.69;100568.93;1751530;81;21031;-81
2021/10/20 02:49:22;;;;;;;14.80;11.57;;;;;;;12.87;81.72;100565.87;1751715;80;21749;-82
2021/10/20 02:51:49;;;;;;;14.15;11.28;;;;;;;12.88;81.74;100560.61;1617121;88;21087;-82
2021/10/20 02:54:17;;;;;;;14.45;11.60;;;;;;;12.89;81.73;100566.34;1647591;87;21588;-82
2021/10/20 02:56:48;;;;;;;14.05;11.85;;;;;;;12.89;81.80;100558.41;1633492;87;21664;-82
2021/10/20 02:59:16;;;;;;;13.28;11.25;;;;;;;12.93;81.91;100553.64;1633269;86;21102;-82
2021/10/20 03:01:42;;;;;;;16.02;11.70;;;;;;;12.94;81.90;100553.20;1633318;87;21818;-82
2021/10/20 03:04:13;;;;;;;14.00;12.50;;;;;;;12.95;81.92;100547.94;1611567;87;21109;-82
2021/10/20 03:06:40;;;;;;;15.88;12.50;;;;;;;12.97;81.96;100548.84;1633507;87;21106;-82
2021/10/20 03:09:08;;;;;;;15.35;12.37;;;;;;;13.00;82.07;100534.33;1612180;87;21071;-82
2021/10/20 03:11:35;;;;;;;16.48;12.93;;;;;;;13.03;82.04;100533.49;1633466;87;21617;-82
2021/10/20 03:14:02;;;;;;;16.67;12.88;;;;;;;13.05;82.08;100532.20;1633380;87;21843;-82
2021/10/20 03:16:29;;;;;;;17.35;13.85;;;;;;;13.07;82.13;100529.14;1633419;87;21094;-82
2021/10/20 03:18:59;;;;;;;17.23;13.35;;;;;;;13.09;82.14;100522.11;1633358;87;21595;-82
2021/10/20 03:21:26;;;;;;;18.70;14.43;;;;;;;13.11;82.22;100525.66;1632881;87;21596;-82
2021/10/20 03:23:53;;;;;;;17.37;13.55;;;;;;;13.12;82.21;100519.48;1633613;87;21142;-82
2021/10/20 03:26:22;;;;;;;16.48;13.75;;;;;;;13.14;82.25;100525.70;1592236;87;21079;-82
2021/10/20 03:28:48;;;;;;;15.75;13.90;;;;;;;13.16;82.25;100517.34;1633607;87;21099;-82
2021/10/20 03:31:17;;;;;;;20.85;15.83;;;;;;;13.17;82.31;100513.81;1652878;85;21091;-82
2021/10/20 03:33:47;;;;;;;16.97;15.00;;;;;;;13.20;82.34;100516.06;1652895;86;21681;-82
2021/10/20 03:36:19;;;;;;;16.27;13.85;;;;;;;13.20;82.34;100508.13;1652419;86;21337;-83
2021/10/20 03:38:44;;;;;;;17.70;14.50;;;;;;;13.23;82.41;100522.71;1652505;85;21804;-82
2021/10/20 03:41:14;;;;;;;18.25;14.60;;;;;;;13.26;82.43;100523.16;1652858;86;21095;-82
2021/10/20 03:43:43;;;;;;;19.23;14.78;;;;;;;13.28;82.43;100524.51;1652714;86;21074;-83
2021/10/20 03:46:08;;;;;;;17.30;14.58;;;;;;;13.28;82.48;100512.17;1652403;86;21091;-82
2021/10/20 03:48:35;;;;;;;18.55;14.98;;;;;;;13.30;82.44;100509.55;1651446;86;21141;-82
2021/10/20 03:51:05;;;;;;;18.05;15.63;;;;;;;13.31;82.49;100508.28;1651228;85;21781;-82
2021/10/20 03:53:31;;;;;;;17.30;14.45;;;;;;;13.33;82.57;100503.02;1621186;87;21651;-83
2021/10/20 03:55:58;;;;;;;19.65;14.90;;;;;;;13.35;82.56;100504.79;1644002;87;21653;-83
2021/10/20 03:58:25;;;;;;;17.17;15.32;;;;;;;13.36;82.53;100501.70;1644212;87;21120;-83
2021/10/20 04:00:57;;;;;;;18.42;15.88;;;;;;;13.38;82.63;100509.20;1644093;87;21549;-83
2021/10/20 04:03:24;;;;;;;18.70;15.48;;;;;;;13.40;82.67;100505.73;1643175;87;21798;-83
2021/10/20 04:05:51;;;;;;;18.75;15.60;;;;;;;13.43;82.70;100498.69;1643651;86;21095;-80
2021/10/20 04:08:17;;;;;;;19.17;16.15;;;;;;;13.45;82.70;100500.91;1644471;86;21151;-82
2021/10/20 04:10:44;;;;;;;20.45;15.45;;;;;;;13.49;82.73;100501.39;1667389;85;21054;-85
2021/10/20 04:13:11;;;;;;;19.98;16.35;;;;;;;13.52;82.77;100499.66;1667401;84;21091;-83
2021/10/20 04:15:38;;;;;;;21.50;16.52;;;;;;;13.52;82.85;100490.41;1667403;85;21796;-81
2021/10/20 04:18:10;;;;;;;21.95;15.88;;;;;;;13.56;82.88;100488.23;1659060;85;21073;-83
2021/10/20 04:20:40;;;;;;;22.15;17.05;;;;;;;13.57;82.84;100483.81;1667559;85;21070;-82
2021/10/20 04:23:08;;;;;;;18.67;15.53;;;;;;;13.58;82.92;100489.13;1666737;84;21093;-83
2021/10/20 04:25:37;;;;;;;20.02;14.73;;;;;;;13.58;82.93;100483.83;1657817;84;21065;-83
2021/10/20 04:28:10;;;;;;;17.17;13.72;;;;;;;13.58;82.95;100485.60;1659973;84;23059;-90
2021/10/20 04:30:36;;;;;;;17.65;13.62;;;;;;;13.58;83.04;100476.34;1660042;84;21079;-84
2021/10/20 04:33:06;;;;;;;18.20;13.70;;;;;;;13.60;83.06;100473.27;1653645;86;21698;-92
2021/10/20 04:35:38;;;;;;;20.43;13.32;;;;;;;13.60;83.12;100470.19;1660191;85;21614;-85
2021/10/20 04:38:08;;;;;;;19.67;14.37;;;;;;;13.61;83.14;100469.77;1654213;84;21096;-85
2021/10/20 04:40:37;;;;;;;19.50;14.50;;;;;;;13.60;83.18;100463.58;1660189;84;22432;-86
2021/10/20 04:43:10;;;;;;;15.75;12.80;;;;;;;13.62;83.25;100459.62;1659737;84;21121;-82
2021/10/20 04:45:35;;;;;;;18.95;13.88;;;;;;;13.63;83.26;100458.77;1659708;84;21069;-83
2021/10/20 04:48:06;;;;;;;17.10;14.45;;;;;;;13.63;83.30;100444.22;1659945;84;21607;-82
2021/10/20 04:50:33;;;;;;;17.02;13.95;;;;;;;13.65;83.34;100444.23;1661171;85;21083;-83
2021/10/20 04:53:04;;;;;;;16.62;13.08;;;;;;;13.67;83.41;100442.04;1668124;86;22703;-83
2021/10/20 04:55:33;;;;;;;19.85;14.63;;;;;;;13.68;83.39;100441.59;1668637;85;21131;-82
2021/10/20 04:58:01;;;;;;;19.70;14.98;;;;;;;13.69;83.46;100431.03;1668573;85;21040;-83
2021/10/20 05:00:28;;;;;;;17.05;14.28;;;;;;;13.72;83.49;100423.55;1668484;85;21549;-83
2021/10/20 05:02:55;;;;;;;18.48;13.25;;;;;;;13.74;83.50;100431.95;1668494;85;21582;-81
2021/10/20 05:05:27;;;;;;;16.60;14.43;;;;;;;13.77;83.52;100416.53;1668420;85;21757;-83
2021/10/20 05:07:56;;;;;;;17.87;14.83;;;;;;;13.80;83.49;100412.15;1668468;84;21095;-81
2021/10/20 05:10:25;;;;;;;18.82;15.38;;;;;;;13.83;83.47;100412.59;1667863;86;21070;-80
2021/10/20 05:12:52;;;;;;;16.62;14.30;;;;;;;13.85;83.46;100404.67;1668509;85;21342;-81
2021/10/20 05:15:19;;;;;;;22.52;14.60;;;;;;;13.86;83.47;100406.02;1668663;85;21659;-80
2021/10/20 05:17:50;;;;;;;17.42;14.95;;;;;;;13.88;83.50;100415.28;1668560;85;21787;-82
2021/10/20 05:20:16;;;;;;;17.52;14.35;;;;;;;13.90;83.48;100407.80;1667475;86;21078;-82
2021/10/20 05:22:43;;;;;;;18.20;14.03;;;;;;;13.93;83.50;100401.66;1668932;85;21055;-80
2021/10/20 05:25:12;;;;;;;16.55;13.40;;;;;;;13.95;83.50;100400.77;1666967;85;21095;-80
2021/10/20 05:27:38;;;;;;;18.30;13.60;;;;;;;13.96;83.50;100401.23;1668048;85;21027;-80
2021/10/20 05:30:07;;;;;;;16.40;13.88;;;;;;;13.99;83.49;100395.06;1668502;85;21836;-80
2021/10/20 05:32:35;;;;;;;17.92;14.53;;;;;;;14.00;83.52;100396.41;1648373;86;21063;-80
2021/10/20 05:35:02;;;;;;;19.35;13.50;;;;;;;14.01;83.53;100388.02;1668234;86;21113;-80
2021/10/20 05:37:32;;;;;;;19.62;14.47;;;;;;;14.03;83.52;100387.58;1642065;86;21117;-80
2021/10/20 05:40:03;;;;;;;18.73;14.30;;;;;;;14.05;83.58;100387.59;1625669;86;21102;-80
2021/10/20 05:42:28;;;;;;;19.23;14.75;;;;;;;14.08;83.58;100392.91;1656925;85;21825;-80
2021/10/20 05:44:56;;;;;;;19.95;14.93;;;;;;;14.10;83.56;100380.57;1653000;85;21093;-80
2021/10/20 05:47:23;;;;;;;17.85;13.15;;;;;;;14.12;83.52;100387.62;1658118;85;21641;-80
2021/10/20 05:49:50;;;;;;;15.63;13.58;;;;;;;14.15;83.51;100374.83;1658499;85;21149;-80
2021/10/20 05:52:16;;;;;;;17.77;12.45;;;;;;;14.16;83.49;100372.20;1652839;85;21088;-80
2021/10/20 05:54:43;;;;;;;18.12;13.35;;;;;;;14.18;83.55;100379.70;1651930;85;21864;-80
2021/10/20 05:57:10;;;;;;;16.90;12.70;;;;;;;14.20;83.52;100377.07;1652050;85;21109;-80
2021/10/20 05:59:37;;;;;;;20.77;13.15;;;;;;;14.22;83.57;100366.05;1652132;85;21058;-81
2021/10/20 06:02:04;;;;;;;18.77;13.90;;;;;;;14.25;83.54;100371.36;1652004;85;21139;-80
2021/10/20 06:04:30;;;;;;;13.88;12.37;;;;;;;14.27;83.56;100364.31;1652102;85;21053;-81
2021/10/20 06:06:58;;;;;;;17.57;12.55;;;;;;;14.29;83.53;100366.52;1652140;85;21776;-80
2021/10/20 06:09:25;;;;;;;15.70;12.80;;;;;;;14.32;83.57;100356.37;1652073;85;21092;-80
2021/10/20 06:11:54;;;;;;;17.23;13.83;;;;;;;14.33;83.54;100358.16;1652108;86;21633;-81
2021/10/20 06:14:20;;;;;;;15.38;13.50;;;;;;;14.35;83.54;100355.06;1652005;85;21595;-81
2021/10/20 06:16:47;;;;;;;22.55;14.18;;;;;;;14.37;83.54;100355.50;1652129;85;22409;-80
2021/10/20 06:19:14;;;;;;;19.90;14.73;;;;;;;14.38;83.54;100351.98;1652075;85;21762;-80
2021/10/20 06:21:41;;;;;;;21.00;15.80;;;;;;;14.42;83.58;100348.04;1652191;85;21085;-80
2021/10/20 06:24:07;;;;;;;19.87;14.05;;;;;;;14.44;83.58;100345.83;1652496;85;21139;-81
2021/10/20 06:26:34;;;;;;;18.45;13.95;;;;;;;14.46;83.57;100354.66;1652138;85;21119;-80
2021/10/20 06:29:01;;;;;;;17.30;14.50;;;;;;;14.50;83.58;100359.08;1652035;86;21649;-80
2021/10/20 06:31:28;;;;;;;18.32;15.10;;;;;;;14.53;83.54;100358.22;1651921;85;22514;-80
2021/10/20 06:33:54;;;;;;;20.37;13.80;;;;;;;14.55;83.52;100356.01;1651933;85;21022;-80
2021/10/20 06:36:30;;;;;;;14.53;12.60;;;;;;;14.58;83.49;100354.73;1652065;85;21162;-80
2021/10/20 06:38:58;;;;;;;17.30;13.48;;;;;;;14.63;83.50;100344.58;1642995;86;21290;-80
2021/10/20 06:41:25;;;;;;;15.90;13.72;;;;;;;14.67;83.51;100351.66;1652091;86;21404;-80
2021/10/20 06:43:52;;;;;;;16.15;13.43;;;;;;;14.71;83.51;100349.45;1652119;85;21795;-80
2021/10/20 06:46:18;;;;;;;17.02;13.78;;;;;;;14.76;83.43;100347.25;1652207;85;21559;-80
2021/10/20 06:48:45;;;;;;;19.48;13.88;;;;;;;14.83;83.51;100344.59;1652229;85;21081;-80
2021/10/20 06:51:12;;;;;;;18.17;14.00;;;;;;;14.89;83.35;100338.00;1650691;85;21152;-80
2021/10/20 06:53:38;;;;;;;17.82;15.50;;;;;;;14.94;83.33;100335.80;1619879;87;21102;-80
2021/10/20 06:56:07;;;;;;;19.80;15.83;;;;;;;15.00;83.22;100338.89;1647481;87;21753;-80
2021/10/20 06:58:35;;;;;;;18.37;14.28;;;;;;;15.05;83.15;100328.27;1619394;87;21090;-80
2021/10/20 07:01:02;;;;;;;18.67;15.08;;;;;;;15.10;82.99;100333.14;1619074;86;21075;-80
2021/10/20 07:03:29;;;;;;;15.60;13.90;;;;;;;15.14;82.94;100325.63;1619570;88;21157;-80
2021/10/20 07:05:56;;;;;;;21.77;15.93;;;;;;;15.19;82.85;100314.58;1619907;88;21548;-80
2021/10/20 07:08:23;;;;;;;18.80;15.98;;;;;;;15.27;82.82;100320.74;1619736;87;21852;-80
2021/10/20 07:10:49;;;;;;;20.90;15.65;;;;;;;15.35;82.75;100320.31;1619232;88;21110;-80
2021/10/20 07:13:16;;;;;;;19.60;15.75;;;;;;;15.44;82.65;100327.80;1618919;88;21090;-80
2021/10/20 07:15:47;;;;;;;19.30;14.55;;;;;;;15.49;82.43;100328.23;1619762;88;21067;-80
2021/10/20 07:18:12;;;;;;;19.02;15.88;;;;;;;15.53;82.31;100313.20;1619423;87;21071;-80
2021/10/20 07:20:39;;;;;;;16.75;14.95;;;;;;;15.58;82.19;100305.21;1619114;87;21777;-80
2021/10/20 07:23:05;;;;;;;16.97;13.98;;;;;;;15.61;82.14;100299.45;1617658;88;21615;-80
2021/10/20 07:25:32;;;;;;;18.80;14.35;;;;;;;15.66;82.03;100287.52;1619933;88;21116;-80
2021/10/20 07:27:59;;;;;;;17.02;14.13;;;;;;;15.69;81.93;100297.69;1619406;88;21644;-80
2021/10/20 07:30:27;;;;;;;16.15;14.15;;;;;;;15.72;81.79;100293.67;1619954;88;21161;-80
2021/10/20 07:32:53;;;;;;;15.70;14.07;;;;;;;15.77;81.80;100284.42;1619974;88;21780;-80
2021/10/20 07:35:20;;;;;;;18.07;14.38;;;;;;;15.82;81.69;100279.08;1619148;86;21086;-80
2021/10/20 07:37:47;;;;;;;15.32;13.43;;;;;;;15.88;81.60;100273.77;1620021;86;21502;-80
2021/10/20 07:40:14;;;;;;;19.48;14.23;;;;;;;15.97;81.54;100278.13;1619851;87;21056;-80
2021/10/20 07:42:44;;;;;;;18.37;14.63;;;;;;;16.04;81.42;100268.80;1619815;88;21154;-80
2021/10/20 07:45:10;;;;;;;14.58;13.08;;;;;;;16.10;81.26;100265.23;1618894;87;21721;-80
2021/10/20 07:47:37;;;;;;;15.85;14.23;;;;;;;16.15;81.14;100258.59;1619441;87;21075;-80
2021/10/20 07:50:05;;;;;;;14.93;13.32;;;;;;;16.17;81.01;100266.09;1618746;88;21091;-80
2021/10/20 07:52:33;;;;;;;20.37;14.75;;;;;;;16.21;80.91;100259.41;1618850;87;22399;-80
2021/10/20 07:55:04;;;;;;;16.60;14.18;;;;;;;16.26;80.93;100258.95;1619977;87;21057;-80
2021/10/20 07:57:36;;;;;;;18.57;13.60;;;;;;;16.33;80.88;100255.82;1611503;88;21116;-80
2021/10/20 08:00:04;;;;;;;14.20;12.70;;;;;;;16.39;80.71;100262.41;1619833;87;21567;-80
2021/10/20 08:02:31;;;;;;;15.30;12.43;;;;;;;16.43;80.54;100260.63;1620023;87;21042;-80
2021/10/20 08:04:58;;;;;;;16.50;12.73;;;;;;;16.45;80.50;100257.50;1619783;86;21148;-80
2021/10/20 08:07:25;;;;;;;18.65;13.03;;;;;;;16.50;80.42;100255.70;1619928;87;21682;-80
2021/10/20 08:09:51;;;;;;;15.38;12.95;;;;;;;16.53;80.29;100255.66;1619918;87;21749;-80
2021/10/20 08:12:19;;;;;;;15.78;13.10;;;;;;;16.57;80.16;100249.88;1620004;87;21493;-80
2021/10/20 08:14:48;;;;;;;15.08;13.25;;;;;;;16.57;79.93;100250.75;1619741;86;21084;-81
2021/10/20 08:17:14;;;;;;;15.23;13.43;;;;;;;16.56;79.90;100234.39;1610857;87;21220;-82
2021/10/20 08:19:41;;;;;;;18.75;11.73;;;;;;;16.60;79.89;100239.24;1620084;87;21155;-82
2021/10/20 08:22:12;;;;;;;17.10;11.43;;;;;;;16.62;79.74;100235.67;1619925;87;21957;-82
2021/10/20 08:24:36;;;;;;;13.25;11.18;;;;;;;16.68;79.77;100232.95;1619736;86;21069;-81
2021/10/20 08:27:03;;;;;;;19.48;12.68;;;;;;;16.75;79.66;100232.92;1619788;87;21595;-81
2021/10/20 08:29:29;;;;;;;15.40;12.30;;;;;;;16.80;79.58;100224.44;1619785;87;21116;-81
2021/10/20 08:31:57;;;;;;;12.30;11.12;;;;;;;16.83;79.29;100218.68;1620048;86;21084;-82
2021/10/20 08:34:23;;;;;;;13.88;11.95;;;;;;;16.84;79.27;100213.81;1619866;87;22617;-82
2021/10/20 08:36:50;;;;;;;18.60;12.40;;;;;;;16.90;79.21;100212.88;1619762;86;21269;-82
2021/10/20 08:39:17;;;;;;;15.38;12.30;;;;;;;16.96;79.11;100212.80;1620420;87;21578;-82
2021/10/20 08:41:44;;;;;;;13.72;12.30;;;;;;;17.04;79.11;100202.09;1620064;87;21190;-81
2021/10/20 08:44:11;;;;;;;14.18;11.75;;;;;;;17.08;78.80;100206.05;1620001;87;21101;-81
2021/10/20 08:46:38;;;;;;;13.75;11.53;;;;;;;17.11;78.67;100203.80;1620037;86;21779;-81
2021/10/20 08:49:05;;;;;;;17.90;11.10;;;;;;;17.12;78.49;100200.25;1619974;86;21085;-81
2021/10/20 08:51:32;;;;;;;12.03;10.75;;;;;;;17.13;78.51;100196.68;1621299;86;21148;-82
2021/10/20 08:53:59;;;;;;;14.80;11.33;;;;;;;17.17;78.36;100196.20;1623908;86;21566;-82
2021/10/20 08:56:25;;;;;;;12.90;11.60;;;;;;;17.20;78.16;100190.86;1652193;85;21637;-81
2021/10/20 08:58:52;;;;;;;12.53;11.18;;;;;;;17.21;78.08;100187.28;1624846;87;22587;-82
2021/10/20 09:01:19;;;;;;;13.85;11.22;;;;;;;17.18;77.97;100184.22;1644754;86;21094;-82
2021/10/20 09:03:45;;;;;;;17.73;11.75;;;;;;;17.21;77.88;100182.87;1644943;87;21170;-81
2021/10/20 09:06:15;;;;;;;15.93;11.03;;;;;;;17.25;77.88;100176.61;1644880;87;21179;-82
2021/10/20 09:08:45;;;;;;;15.23;10.90;;;;;;;17.33;77.80;100176.97;1644872;86;21024;-82
2021/10/20 09:11:35;;;;;;;11.40;9.95;;;;;;;17.36;77.66;100176.48;1644701;87;21832;-82
2021/10/20 09:14:04;;;;;;;11.97;9.70;;;;;;;17.45;77.63;100169.70;1627319;87;21593;-80
2021/10/20 09:16:33;;;;;;;12.88;9.88;;;;;;;17.51;77.42;100167.41;1625894;87;21553;-81
2021/10/20 09:19:11;;;;;;;13.05;10.38;;;;;;;17.56;77.36;100169.56;1644767;86;21095;-81
2021/10/20 09:22:08;;;;;;;13.00;9.93;;;;;;;17.61;77.27;100169.53;1627834;86;21108;-80
2021/10/20 09:24:41;;;;;;;11.08;9.55;;;;;;;17.64;77.16;100167.70;1644151;86;22671;-80
2021/10/20 09:27:25;;;;;;;13.68;9.65;;;;;;;17.67;77.12;100164.98;1644591;87;21462;-80
2021/10/20 09:30:14;;;;;;;13.32;9.80;;;;;;;17.76;77.04;100157.33;1644744;87;21644;-81
2021/10/20 09:32:41;;;;;;;15.80;13.03;;;;;;;17.87;76.98;100152.77;1644406;87;21020;-81
2021/10/20 09:35:11;;;;;;;12.43;10.75;;;;;;;17.97;76.78;100153.50;1644776;85;21080;-81
2021/10/20 09:37:38;;;;;;;36.10;22.13;;;;;;;18.03;76.50;100147.20;1625745;86;21806;-81
2021/10/20 09:40:10;;;;;;;50.55;42.30;;;;;;;18.03;76.27;100137.89;1644663;85;21103;-81
2021/10/20 09:42:48;;;;;;;33.08;25.52;;;;;;;18.03;76.24;100131.23;1644563;84;21127;-80
2021/10/20 09:45:16;;;;;;;35.75;25.15;;;;;;;18.08;76.13;100132.51;1644683;86;21071;-80
2021/10/20 09:47:43;;;;;;;36.30;26.05;;;;;;;18.09;75.96;100115.61;1644666;87;21095;-80
2021/10/20 09:50:10;;;;;;;38.70;27.48;;;;;;;18.06;75.75;100121.87;1644567;85;21258;-80
2021/10/20 09:52:50;;;;;;;27.10;21.55;;;;;;;18.02;75.69;100123.70;1648841;85;22110;-80
2021/10/20 09:55:27;;;;;;;38.78;26.05;;;;;;;18.00;75.57;100112.20;1654641;86;22606;-80
2021/10/20 09:58:08;;;;;;;42.88;27.77;;;;;;;17.95;75.44;100113.17;1653827;85;21548;-81
2021/10/20 10:00:34;;;;;;;54.80;35.20;;;;;;;17.92;75.47;100108.75;1624589;87;21119;-81
2021/10/20 10:03:01;;;;;;;30.35;20.50;;;;;;;17.95;75.56;100098.06;1655155;85;21744;-81
2021/10/20 10:05:29;;;;;;;31.68;20.88;;;;;;;17.98;75.46;100099.79;1654991;86;21100;-80
2021/10/20 10:07:55;;;;;;;32.63;23.75;;;;;;;17.97;75.33;100103.38;1654823;85;21159;-81
2021/10/20 10:10:22;;;;;;;34.73;21.15;;;;;;;17.98;75.41;100098.03;1654812;86;21100;-80
2021/10/20 10:12:58;;;;;;;23.80;14.15;;;;;;;18.02;75.33;100097.07;1654942;85;21094;-80
2021/10/20 10:15:24;;;;;;;23.65;16.23;;;;;;;18.04;75.19;100087.73;1654907;86;21738;-80
2021/10/20 10:17:55;;;;;;;17.25;15.05;;;;;;;17.98;74.96;100080.72;1654878;86;21087;-81
2021/10/20 10:20:25;;;;;;;26.35;20.60;;;;;;;17.97;74.95;100089.59;1626894;86;21554;-81
2021/10/20 10:22:55;;;;;;;15.72;14.00;;;;;;;17.95;74.82;100083.88;1635840;86;21628;-81
2021/10/20 10:25:37;;;;;;;12.15;10.88;;;;;;;17.93;74.84;100077.24;1627034;88;21696;-81
2021/10/20 10:28:25;;;;;;;10.45;8.65;;;;;;;17.91;74.71;100076.39;1655135;85;21841;-81
2021/10/20 10:31:05;;;;;;;10.00;8.18;;;;;;;17.90;74.61;100066.63;1654844;86;21105;-80
2021/10/20 10:33:37;;;;;;;18.82;7.95;;;;;;;17.87;74.60;100074.23;1654978;85;21292;-80
2021/10/20 10:36:23;;;;;;;11.35;7.47;;;;;;;17.88;74.69;100067.98;1654773;85;21090;-80
2021/10/20 10:38:54;;;;;;;11.40;7.75;;;;;;;17.92;74.70;100057.30;1654859;85;21176;-80
2021/10/20 10:41:42;;;;;;;10.03;8.53;;;;;;;17.95;74.67;100057.25;1654553;85;21777;-80
2021/10/20 10:44:11;;;;;;;10.00;7.37;;;;;;;17.97;74.62;100048.78;1654790;85;21128;-80
2021/10/20 10:47:10;;;;;;;11.90;7.87;;;;;;;18.01;74.62;100046.49;1654818;85;21911;-80
2021/10/20 10:49:40;;;;;;;8.75;7.50;;;;;;;18.01;74.48;100044.70;1643975;85;21139;-80
2021/10/20 10:52:22;;;;;;;9.70;7.37;;;;;;;18.01;74.50;100034.05;1654128;85;21076;-80
2021/10/20 10:55:08;;;;;;;9.68;7.70;;;;;;;18.01;74.29;100035.38;1645424;86;21965;-80
2021/10/20 10:57:51;;;;;;;9.90;7.72;;;;;;;18.00;74.26;100024.32;1645756;87;21454;-80
2021/10/20 11:00:31;;;;;;;11.10;8.90;;;;;;;18.01;74.25;100019.86;1645611;85;21104;-80
2021/10/20 11:03:13;;;;;;;9.58;8.55;;;;;;;18.02;74.25;100008.33;1645699;85;21523;-80
2021/10/20 11:05:49;;;;;;;12.85;8.05;;;;;;;18.01;74.18;99991.44;1645553;85;21074;-80
2021/10/20 11:08:16;;;;;;;8.98;7.67;;;;;;;18.01;74.17;99979.45;1636262;85;21786;-80
2021/10/20 11:10:43;;;;;;;9.33;8.05;;;;;;;18.03;74.16;99974.11;1645769;85;21116;-80
2021/10/20 11:13:12;;;;;;;9.63;8.40;;;;;;;18.05;74.04;99971.84;1645756;85;21065;-80
2021/10/20 11:15:39;;;;;;;11.35;8.20;;;;;;;18.08;74.01;99966.06;1645814;86;21148;-80
2021/10/20 11:18:06;;;;;;;13.98;8.33;;;;;;;18.12;74.01;99941.12;1645746;85;21053;-80